Tierra Verde, Florida
Current Conditions -  °F | °C
As of 12:53 PM on Wednesday 26 Nov 2014 (Local Time) from KSPG Reporting Station
Clear Clear  
Wind Chill: 61°   Ceiling: Unl
Heat Index: 61°   Visibility: 10mi
Dew Point: 49°   Wind: 13mph
Humidity: 64%   Direction: 10°N
Pressure: 30.15"   Gusts: NA
Location:  27.629°N, 82.7242°W
Report Text: KSPG 261753Z 01011KT 10SM CLR 16/09 A3015 RMK AO2 SLP209 60001 T01610094 10161 20139 50003
Loading
Personal Weather Stations






























Interactive Weather Map New forecast layout! Learn more

10-Day Weather Forecast

Advertisements
Track Severe Weather on mobile